Time;durP1;ratioP1;P1;durP2;ratioP2;P2;SDS_P1;SDS_P2;PMS_P1;PMS_P2;Temp;Humidity;BMP_temperature;BMP_pressure;BME280_temperature;BME280_humidity;BME280_pressure;Samples;Min_cycle;Max_cycle;Signal;HPM_P1;HPM_P2
2022/03/07 00:01:11;;;;;;;4.50;1.80;;;-2.40;99.90;;;;;;4934533;29;20028;-66
2022/03/07 00:03:37;;;;;;;2.90;1.60;;;-2.40;99.90;;;;;;4934934;29;20024;-66
2022/03/07 00:06:04;;;;;;;3.22;1.70;;;-2.50;99.90;;;;;;4934838;29;20020;-66
2022/03/07 00:08:30;;;;;;;3.63;1.88;;;-2.60;99.90;;;;;;4935012;29;20031;-66
2022/03/07 00:10:56;;;;;;;3.92;1.90;;;-2.60;99.90;;;;;;4934465;29;20051;-66
2022/03/07 00:13:22;;;;;;;3.83;1.65;;;-2.60;99.90;;;;;;4934643;29;20039;-66
2022/03/07 00:15:48;;;;;;;3.58;1.65;;;-2.60;99.90;;;;;;4934656;29;20046;-66
2022/03/07 00:18:13;;;;;;;5.32;1.90;;;-2.60;99.90;;;;;;4934554;29;20023;-66
2022/03/07 00:20:39;;;;;;;2.53;1.60;;;-2.60;99.90;;;;;;4934846;29;20028;-66
2022/03/07 00:23:05;;;;;;;2.85;1.60;;;-2.70;99.90;;;;;;4934643;29;20472;-66
2022/03/07 00:25:31;;;;;;;4.25;1.85;;;-2.70;99.90;;;;;;4934557;29;20046;-66
2022/03/07 00:27:57;;;;;;;3.28;1.77;;;-2.70;99.90;;;;;;4934284;29;20139;-66
2022/03/07 00:30:23;;;;;;;3.75;2.05;;;-2.70;99.90;;;;;;4933266;29;20192;-66
2022/03/07 00:32:48;;;;;;;2.88;1.80;;;-2.70;99.90;;;;;;4934604;29;20020;-66
2022/03/07 00:35:15;;;;;;;3.72;1.80;;;-2.70;99.90;;;;;;4934864;29;20118;-66
2022/03/07 00:37:41;;;;;;;2.83;1.92;;;-2.70;99.90;;;;;;4934322;29;20063;-66
2022/03/07 00:40:09;;;;;;;4.55;1.85;;;-2.70;99.90;;;;;;4933074;29;20387;-66
2022/03/07 00:42:37;;;;;;;2.95;1.80;;;-2.90;99.90;;;;;;4934696;29;20031;-67
2022/03/07 00:45:06;;;;;;;5.05;1.80;;;-2.90;99.90;;;;;;4934286;29;20020;-67
2022/03/07 00:47:31;;;;;;;5.18;1.90;;;-2.90;99.90;;;;;;4934264;29;20040;-67
2022/03/07 00:49:57;;;;;;;3.80;2.22;;;-2.90;99.90;;;;;;4934403;29;20095;-67
2022/03/07 00:52:23;;;;;;;3.95;2.03;;;-2.90;99.90;;;;;;4935458;29;20106;-67
2022/03/07 00:54:48;;;;;;;4.75;1.67;;;-3.00;99.90;;;;;;4938096;29;20111;-67
2022/03/07 00:57:14;;;;;;;4.05;1.65;;;-3.10;99.90;;;;;;4937858;29;20427;-67
2022/03/07 00:59:40;;;;;;;2.97;1.60;;;-3.10;99.90;;;;;;4937833;29;20027;-67
2022/03/07 01:02:06;;;;;;;6.40;1.90;;;-3.20;99.90;;;;;;4937835;29;20079;-67
2022/03/07 01:04:31;;;;;;;2.42;1.50;;;-3.20;99.90;;;;;;4937898;29;20040;-67
2022/03/07 01:06:57;;;;;;;4.32;1.90;;;-3.20;99.90;;;;;;4937482;29;20091;-67
2022/03/07 01:09:23;;;;;;;3.42;1.77;;;-3.30;99.90;;;;;;4937610;29;20443;-67
2022/03/07 01:11:49;;;;;;;3.40;1.80;;;-3.30;99.90;;;;;;4937437;29;20484;-67
2022/03/07 01:14:14;;;;;;;3.83;1.80;;;-3.40;99.90;;;;;;4937724;29;20024;-67
2022/03/07 01:16:40;;;;;;;2.42;1.80;;;-3.40;99.90;;;;;;4937367;29;20500;-67
2022/03/07 01:19:06;;;;;;;3.22;1.90;;;-3.40;99.90;;;;;;4937655;29;20028;-68
2022/03/07 01:21:32;;;;;;;2.80;1.80;;;-3.40;99.90;;;;;;4937434;29;20099;-68
2022/03/07 01:23:57;;;;;;;3.90;1.80;;;-3.40;99.90;;;;;;4936111;29;20070;-68
2022/03/07 01:26:23;;;;;;;3.95;2.20;;;-3.40;99.90;;;;;;4937583;29;20024;-68
2022/03/07 01:28:49;;;;;;;4.72;1.90;;;-3.50;99.90;;;;;;4937601;29;20147;-68
2022/03/07 01:31:14;;;;;;;5.32;2.00;;;-3.50;99.90;;;;;;4936970;29;20066;-68
2022/03/07 01:33:40;;;;;;;11.05;2.10;;;-3.50;99.90;;;;;;4937414;29;20114;-68
2022/03/07 01:36:06;;;;;;;5.97;2.00;;;-3.40;99.90;;;;;;4937138;29;20109;-68
2022/03/07 01:38:32;;;;;;;4.78;2.17;;;-3.40;99.90;;;;;;4936914;29;20062;-68
2022/03/07 01:40:57;;;;;;;4.53;2.05;;;-3.40;99.90;;;;;;4937298;29;20024;-68
2022/03/07 01:43:23;;;;;;;3.17;1.88;;;-3.40;99.90;;;;;;4937021;29;20042;-68
2022/03/07 01:45:49;;;;;;;2.47;1.85;;;-3.50;99.90;;;;;;4937272;29;20034;-67
2022/03/07 01:48:15;;;;;;;6.78;2.13;;;-3.40;99.90;;;;;;4936826;29;20372;-67
2022/03/07 01:50:41;;;;;;;2.83;1.77;;;-3.40;99.90;;;;;;4937041;29;20053;-67
2022/03/07 01:53:07;;;;;;;2.83;1.98;;;-3.40;99.90;;;;;;4936876;29;20027;-67
2022/03/07 01:55:32;;;;;;;3.10;2.10;;;-3.40;99.90;;;;;;4936859;29;20122;-67
2022/03/07 01:57:58;;;;;;;4.45;1.98;;;-3.40;99.90;;;;;;4936691;29;20078;-67
2022/03/07 02:00:28;;;;;;;3.42;2.05;;;-3.40;99.90;;;;;;4936840;29;20035;-67
2022/03/07 02:02:54;;;;;;;6.63;1.80;;;-3.30;99.90;;;;;;4936555;29;20522;-66
2022/03/07 02:05:20;;;;;;;3.38;2.03;;;-3.40;99.90;;;;;;4936075;29;20794;-67
2022/03/07 02:07:46;;;;;;;3.38;2.25;;;-3.40;99.90;;;;;;4936465;29;20027;-65
2022/03/07 02:10:12;;;;;;;5.00;2.22;;;-3.40;99.90;;;;;;4936725;29;20040;-67
2022/03/07 02:12:39;;;;;;;6.35;2.38;;;-3.30;99.90;;;;;;4936519;29;20052;-66
2022/03/07 02:15:07;;;;;;;10.20;3.22;;;-3.30;99.90;;;;;;4936586;29;20156;-66
2022/03/07 02:17:34;;;;;;;4.93;2.45;;;-3.20;99.90;;;;;;4936652;29;20028;-66
2022/03/07 02:19:59;;;;;;;10.30;4.00;;;-3.20;99.90;;;;;;4936402;29;20027;-66
2022/03/07 02:22:25;;;;;;;11.10;4.75;;;-3.20;99.90;;;;;;4936215;29;20480;-66
2022/03/07 02:56:21;;;;;;;24.60;7.20;;;-2.90;99.90;;;;;;4935310;29;20130;-67
2022/03/07 02:58:46;;;;;;;28.73;7.00;;;-2.90;99.90;;;;;;4935566;29;20035;-67
2022/03/07 03:01:12;;;;;;;37.05;7.65;;;-2.90;99.90;;;;;;4935850;29;20024;-67
2022/03/07 03:37:17;;;;;;;34.20;10.15;;;-2.70;99.90;;;;;;5925574;23;20021;-68
2022/03/07 03:39:43;;;;;;;35.83;9.70;;;-2.70;99.90;;;;;;4951915;29;20082;-69
2022/03/07 03:42:09;;;;;;;34.40;10.25;;;-2.70;99.90;;;;;;4954127;29;20035;-69
2022/03/07 03:44:34;;;;;;;37.42;10.70;;;-2.70;99.90;;;;;;4953967;29;20069;-69
2022/03/07 03:47:00;;;;;;;28.63;10.57;;;-2.60;99.90;;;;;;4954128;29;20066;-69
2022/03/07 03:49:26;;;;;;;30.08;10.18;;;-2.60;99.90;;;;;;4936354;29;20102;-69
2022/03/07 03:51:52;;;;;;;41.80;10.25;;;-2.60;99.90;;;;;;4936272;29;20103;-69
2022/03/07 03:54:17;;;;;;;29.80;10.95;;;-2.80;99.90;;;;;;4936210;29;20028;-69
2022/03/07 03:56:43;;;;;;;37.08;11.50;;;-2.80;99.90;;;;;;4935847;29;20443;-69
2022/03/07 03:59:09;;;;;;;37.88;11.95;;;-2.80;99.90;;;;;;4935920;29;20051;-69
2022/03/07 04:01:34;;;;;;;31.77;11.48;;;-2.90;99.90;;;;;;4935848;29;20089;-69
2022/03/07 04:04:00;;;;;;;38.35;12.35;;;-3.00;99.90;;;;;;4935896;29;20050;-69
2022/03/07 04:06:26;;;;;;;48.97;11.27;;;-3.00;99.90;;;;;;4935780;29;20487;-69
2022/03/07 04:08:57;;;;;;;38.55;12.07;;;-2.90;99.90;;;;;;4935815;29;20020;-69
2022/03/07 04:11:23;;;;;;;38.55;11.93;;;-2.90;99.90;;;;;;4935239;29;20189;-70
2022/03/07 04:13:49;;;;;;;36.53;12.05;;;-2.90;99.90;;;;;;4935761;29;20063;-71
2022/03/07 04:16:15;;;;;;;36.58;12.20;;;-2.80;99.90;;;;;;4935754;29;20038;-71
2022/03/07 04:18:41;;;;;;;46.67;11.50;;;-2.70;99.90;;;;;;4935654;29;20483;-71
2022/03/07 04:21:07;;;;;;;38.33;11.55;;;-2.60;99.90;;;;;;4935688;29;20035;-70
2022/03/07 04:23:33;;;;;;;40.30;11.63;;;-2.70;99.90;;;;;;4935961;29;20032;-68
2022/03/07 04:25:58;;;;;;;44.95;12.57;;;-2.70;99.90;;;;;;4936351;29;20023;-67
2022/03/07 04:28:24;;;;;;;39.78;12.77;;;-2.70;99.90;;;;;;4938521;29;20027;-68
2022/03/07 04:30:50;;;;;;;31.20;10.98;;;-2.80;99.90;;;;;;4939679;29;20031;-68
2022/03/07 04:33:15;;;;;;;26.15;10.98;;;-2.80;99.90;;;;;;4939471;29;20443;-68
2022/03/07 04:35:41;;;;;;;24.08;10.77;;;-2.80;99.90;;;;;;4939663;29;20044;-68
2022/03/07 04:38:07;;;;;;;25.77;10.82;;;-2.80;99.90;;;;;;4938439;29;20491;-68
2022/03/07 04:40:32;;;;;;;25.70;10.77;;;-2.70;99.90;;;;;;4938269;29;20118;-69
2022/03/07 04:42:58;;;;;;;25.13;10.75;;;-2.60;99.90;;;;;;4937977;29;20031;-69
2022/03/07 04:45:24;;;;;;;27.08;11.10;;;-2.60;99.90;;;;;;4938442;29;20032;-71
2022/03/07 04:47:50;;;;;;;29.52;11.93;;;-2.50;99.90;;;;;;4938099;29;20391;-72
2022/03/07 04:50:16;;;;;;;26.50;11.43;;;-2.50;99.90;;;;;;4937918;29;20031;-72
2022/03/07 04:52:42;;;;;;;22.75;10.52;;;-2.50;99.90;;;;;;4937859;29;20028;-72
2022/03/07 04:55:11;;;;;;;22.98;10.90;;;-2.40;99.90;;;;;;4937923;29;20024;-72
2022/03/07 04:57:36;;;;;;;27.27;11.10;;;-2.40;99.90;;;;;;4937789;29;20043;-72
2022/03/07 05:00:05;;;;;;;25.35;9.50;;;-2.40;99.90;;;;;;4938088;29;20027;-72
2022/03/07 05:02:31;;;;;;;25.17;10.18;;;-2.30;99.90;;;;;;4937721;29;20051;-70
2022/03/07 05:04:57;;;;;;;28.58;12.15;;;-2.20;99.90;;;;;;4937611;29;20810;-71
2022/03/07 05:07:22;;;;;;;26.38;11.30;;;-2.20;99.90;;;;;;4937660;29;20023;-70
2022/03/07 05:09:48;;;;;;;30.35;11.63;;;-2.20;99.90;;;;;;4937324;29;20072;-70
2022/03/07 05:12:14;;;;;;;31.13;12.38;;;-2.20;99.90;;;;;;4937641;29;20051;-69
2022/03/07 05:14:39;;;;;;;26.85;10.88;;;-2.10;99.90;;;;;;4937239;29;20039;-70
2022/03/07 05:17:05;;;;;;;32.95;11.23;;;-2.10;99.90;;;;;;4937491;29;20032;-68
2022/03/07 05:19:31;;;;;;;26.67;10.60;;;-2.10;99.90;;;;;;4937726;29;20035;-70
2022/03/07 05:21:57;;;;;;;26.00;10.02;;;-2.10;99.90;;;;;;4937234;29;20024;-70
2022/03/07 05:24:22;;;;;;;27.08;9.85;;;-2.10;99.90;;;;;;4937511;29;20087;-70
2022/03/07 05:26:48;;;;;;;26.35;10.70;;;-2.10;99.90;;;;;;4937181;29;20032;-70
2022/03/07 05:29:15;;;;;;;27.65;9.88;;;-2.10;99.90;;;;;;4937380;29;20428;-71
2022/03/07 05:31:40;;;;;;;28.27;10.13;;;-2.10;99.90;;;;;;4937436;29;20054;-72
2022/03/07 05:34:06;;;;;;;30.25;10.60;;;-2.10;99.90;;;;;;4937366;29;20388;-72
2022/03/07 05:36:32;;;;;;;26.63;10.00;;;-2.20;99.90;;;;;;4937232;29;20038;-68
2022/03/07 05:38:58;;;;;;;23.73;9.30;;;-2.10;99.90;;;;;;4935794;29;20051;-70
2022/03/07 05:41:23;;;;;;;23.60;9.77;;;-2.00;99.90;;;;;;4936932;29;20147;-70
2022/03/07 05:43:49;;;;;;;25.80;10.70;;;-1.50;99.90;;;;;;4936293;29;20029;-70
2022/03/07 05:46:15;;;;;;;29.35;11.15;;;-1.40;99.90;;;;;;4936877;29;20032;-73
2022/03/07 05:48:40;;;;;;;23.58;9.85;;;-1.50;99.90;;;;;;4936573;29;20067;-73
2022/03/07 05:51:06;;;;;;;21.35;9.60;;;-1.70;99.90;;;;;;4937007;29;20043;-70
2022/03/07 05:53:32;;;;;;;24.35;9.88;;;-1.80;99.90;;;;;;4936805;29;20038;-71
2022/03/07 05:55:58;;;;;;;25.42;10.65;;;-1.80;99.90;;;;;;4934464;29;20526;-72
2022/03/07 05:58:23;;;;;;;23.48;10.38;;;-1.80;99.90;;;;;;4936341;29;20016;-71
2022/03/07 06:00:49;;;;;;;23.13;9.60;;;-1.90;99.90;;;;;;4940975;29;20043;-73
2022/03/07 06:03:15;;;;;;;24.83;10.52;;;-1.90;99.90;;;;;;4948910;28;20031;-70
2022/03/07 06:05:40;;;;;;;20.92;9.15;;;-1.90;99.90;;;;;;4937139;29;20398;-70
2022/03/07 06:08:06;;;;;;;22.20;9.45;;;-1.90;99.90;;;;;;4937299;29;20538;-70
2022/03/07 06:10:32;;;;;;;24.58;9.95;;;-1.90;99.90;;;;;;4936184;29;20063;-70
2022/03/07 06:12:59;;;;;;;22.50;8.95;;;-1.90;99.90;;;;;;4936005;29;20046;-70
2022/03/07 06:15:25;;;;;;;24.88;8.80;;;-1.90;99.90;;;;;;4936122;29;20028;-70
2022/03/07 06:17:51;;;;;;;23.92;9.50;;;-1.90;99.90;;;;;;4936633;29;20028;-72
2022/03/07 06:20:17;;;;;;;17.80;8.57;;;-1.90;99.90;;;;;;4944286;29;20502;-69
2022/03/07 06:22:43;;;;;;;24.85;8.93;;;-1.90;99.90;;;;;;4951014;28;20030;-70
2022/03/07 06:25:09;;;;;;;20.70;7.97;;;-1.90;99.90;;;;;;4936217;29;20028;-69
2022/03/07 06:27:35;;;;;;;19.45;7.43;;;-1.90;99.90;;;;;;4936534;29;20054;-70
2022/03/07 06:30:00;;;;;;;18.90;8.00;;;-1.70;99.90;;;;;;4936008;29;20507;-69
2022/03/07 06:32:26;;;;;;;17.30;8.25;;;-1.70;99.90;;;;;;4936439;29;20035;-69
2022/03/07 06:34:52;;;;;;;19.75;8.32;;;-1.80;99.90;;;;;;4936154;29;20391;-67
2022/03/07 06:37:18;;;;;;;16.55;7.05;;;-1.80;99.90;;;;;;4936001;29;20451;-69
2022/03/07 06:39:44;;;;;;;15.90;6.68;;;-1.40;99.90;;;;;;4935830;29;20035;-70
2022/03/07 06:42:10;;;;;;;15.32;6.65;;;-1.20;99.90;;;;;;4936220;29;20423;-70
2022/03/07 06:44:39;;;;;;;14.95;6.32;;;-1.20;99.90;;;;;;4936243;29;20090;-70
2022/03/07 06:47:09;;;;;;;15.05;6.38;;;-1.30;99.90;;;;;;4935771;29;20047;-70
2022/03/07 06:49:35;;;;;;;13.35;6.97;;;-1.40;99.90;;;;;;4935954;29;20020;-69
2022/03/07 06:52:01;;;;;;;16.00;7.00;;;-1.40;99.90;;;;;;4935666;29;20043;-70
2022/03/07 06:54:26;;;;;;;15.18;7.38;;;-1.40;99.90;;;;;;4935737;29;20041;-68
2022/03/07 06:56:52;;;;;;;20.83;7.78;;;-1.40;99.90;;;;;;4935862;29;20027;-68
2022/03/07 06:59:18;;;;;;;19.50;8.13;;;-1.50;99.90;;;;;;4935644;29;20028;-68
2022/03/07 07:01:43;;;;;;;18.50;8.45;;;-1.50;99.90;;;;;;4935711;29;20024;-68
2022/03/07 07:04:09;;;;;;;11.27;5.93;;;-1.60;99.90;;;;;;4935622;29;20040;-70
2022/03/07 07:06:35;;;;;;;11.85;5.85;;;-1.10;99.90;;;;;;4935787;29;20058;-67
2022/03/07 07:09:01;;;;;;;15.20;5.47;;;-0.20;99.90;;;;;;4935661;29;20599;-69
2022/03/07 07:11:26;;;;;;;8.18;5.03;;;-0.30;99.90;;;;;;4935687;29;20040;-71
2022/03/07 07:13:52;;;;;;;9.93;4.55;;;-0.40;99.90;;;;;;4935065;29;20083;-77
2022/03/07 07:16:18;;;;;;;9.82;5.05;;;-0.70;99.90;;;;;;4935522;29;20055;-77
2022/03/07 07:18:44;;;;;;;11.20;5.10;;;-0.90;99.90;;;;;;4935257;29;20028;-77
2022/03/07 07:21:09;;;;;;;9.32;4.82;;;-1.10;99.90;;;;;;4926159;29;20107;-78
2022/03/07 07:23:36;;;;;;;11.13;5.20;;;-1.20;99.90;;;;;;4934617;29;20030;-69
2022/03/07 07:26:06;;;;;;;9.40;4.60;;;-1.40;99.90;;;;;;4933914;29;20479;-72
2022/03/07 07:28:32;;;;;;;14.15;5.97;;;-1.50;99.90;;;;;;4934197;29;20035;-66
2022/03/07 07:30:58;;;;;;;11.80;5.88;;;-1.50;99.90;;;;;;4932087;29;20047;-65
2022/03/07 07:33:23;;;;;;;9.98;4.75;;;-1.50;99.90;;;;;;4920750;29;20447;-69
2022/03/07 07:35:49;;;;;;;13.68;5.38;;;-1.50;99.90;;;;;;4925778;29;20036;-69
2022/03/07 07:38:15;;;;;;;8.18;3.97;;;-1.60;99.90;;;;;;4927290;29;20067;-69
2022/03/07 07:40:41;;;;;;;8.05;4.65;;;-1.60;99.90;;;;;;4918723;29;20036;-65
2022/03/07 07:43:07;;;;;;;4.75;3.20;;;-1.60;99.90;;;;;;4930954;29;20468;-66
2022/03/07 07:45:33;;;;;;;9.93;3.83;;;-1.50;99.90;;;;;;4921774;29;20036;-65
2022/03/07 07:48:02;;;;;;;5.88;3.13;;;-1.60;99.90;;;;;;4924495;29;20349;-65
2022/03/07 07:50:28;;;;;;;5.18;2.65;;;-1.60;99.90;;;;;;4928512;29;20114;-65
2022/03/07 07:52:57;;;;;;;4.40;2.80;;;-1.50;99.90;;;;;;4916748;29;20036;-67
2022/03/07 07:55:24;;;;;;;4.10;2.63;;;-1.50;99.90;;;;;;4914395;29;20499;-66
2022/03/07 07:57:49;;;;;;;5.97;2.90;;;-1.50;99.90;;;;;;4925370;29;20111;-65
2022/03/07 08:00:19;;;;;;;4.63;2.67;;;-1.40;99.90;;;;;;4933697;29;20067;-66
2022/03/07 08:02:47;;;;;;;5.40;2.85;;;-1.40;99.90;;;;;;4934567;29;20027;-65
2022/03/07 08:05:14;;;;;;;4.47;3.03;;;-1.40;99.90;;;;;;4934515;29;20071;-64
2022/03/07 08:07:41;;;;;;;3.78;1.80;;;-1.40;99.90;;;;;;4934502;29;20036;-64
2022/03/07 08:10:07;;;;;;;2.25;2.05;;;-1.40;99.90;;;;;;4934178;29;20031;-65
2022/03/07 08:12:33;;;;;;;4.75;1.98;;;-1.40;99.90;;;;;;4934455;29;20043;-63
2022/03/07 08:14:58;;;;;;;3.00;2.00;;;-1.30;99.90;;;;;;4932467;29;20377;-66
2022/03/07 08:17:24;;;;;;;5.35;2.28;;;-1.30;99.90;;;;;;4914421;29;20047;-66
2022/03/07 08:19:50;;;;;;;2.85;2.38;;;-1.20;99.90;;;;;;4915371;29;20028;-65
2022/03/07 08:22:16;;;;;;;8.02;2.30;;;-1.20;99.90;;;;;;4923158;29;20040;-63
2022/03/07 08:24:42;;;;;;;4.18;2.30;;;-1.20;99.90;;;;;;4933834;29;20047;-63
2022/03/07 08:27:07;;;;;;;4.28;2.50;;;-1.10;99.90;;;;;;4933579;29;20365;-63
2022/03/07 08:29:33;;;;;;;4.03;2.17;;;-1.10;99.90;;;;;;4934391;29;20038;-63
2022/03/07 08:31:59;;;;;;;4.30;2.50;;;-1.10;99.90;;;;;;4934223;29;20130;-66
2022/03/07 08:34:25;;;;;;;6.22;2.58;;;-1.10;99.90;;;;;;4933783;29;20184;-67
2022/03/07 08:36:50;;;;;;;2.58;1.95;;;-1.10;99.90;;;;;;4932957;29;20023;-67
2022/03/07 08:39:16;;;;;;;4.28;2.60;;;-0.60;99.90;;;;;;4933540;29;20070;-70
2022/03/07 08:41:42;;;;;;;2.95;1.98;;;0.40;99.90;;;;;;4932858;29;20115;-68
2022/03/07 08:44:07;;;;;;;4.90;2.20;;;0.10;99.90;;;;;;4934412;29;20038;-68
2022/03/07 08:46:33;;;;;;;2.58;2.08;;;0.00;99.90;;;;;;4934423;29;20038;-68
2022/03/07 08:48:59;;;;;;;2.25;1.92;;;-0.20;99.90;;;;;;4933983;29;20039;-68
2022/03/07 08:51:25;;;;;;;2.38;1.60;;;-0.40;99.90;;;;;;4934207;29;20046;-68
2022/03/07 08:53:50;;;;;;;3.28;1.63;;;-0.50;99.90;;;;;;4933983;29;20039;-68
2022/03/07 08:56:16;;;;;;;4.85;1.95;;;-0.50;99.90;;;;;;4934434;29;20098;-68
2022/03/07 08:58:42;;;;;;;3.17;2.05;;;-0.50;99.90;;;;;;4934250;29;20050;-68
2022/03/07 09:01:09;;;;;;;4.72;2.25;;;-0.50;99.90;;;;;;4934352;29;20900;-68
2022/03/07 09:03:35;;;;;;;4.47;2.45;;;-0.40;99.90;;;;;;4934221;29;20035;-68
2022/03/07 09:06:01;;;;;;;4.18;2.20;;;-0.40;99.90;;;;;;4934069;29;20050;-68
2022/03/07 09:08:27;;;;;;;4.88;2.50;;;-0.40;99.90;;;;;;4934068;29;20071;-68
2022/03/07 09:10:52;;;;;;;3.70;2.20;;;-0.40;99.90;;;;;;4933839;29;20611;-68
2022/03/07 09:13:18;;;;;;;3.30;1.90;;;-0.40;99.90;;;;;;4934263;29;20024;-68
2022/03/07 09:15:45;;;;;;;1.95;1.73;;;-0.40;99.90;;;;;;4935867;29;20030;-68
2022/03/07 09:18:12;;;;;;;3.33;1.92;;;-0.40;99.90;;;;;;4937382;29;20078;-68
2022/03/07 09:20:39;;;;;;;3.22;2.22;;;-0.40;99.90;;;;;;4937366;29;20479;-68
2022/03/07 09:23:05;;;;;;;3.38;1.98;;;-0.40;99.90;;;;;;4937655;29;20032;-68
2022/03/07 09:25:31;;;;;;;2.80;2.03;;;-0.40;99.90;;;;;;4937364;29;20387;-68
2022/03/07 09:27:57;;;;;;;3.28;2.22;;;-0.40;99.90;;;;;;4936927;29;20071;-68
2022/03/07 09:30:23;;;;;;;4.47;2.22;;;0.10;99.90;;;;;;4937378;29;20036;-68
2022/03/07 09:32:49;;;;;;;3.03;1.85;;;-0.10;99.90;;;;;;4937280;29;20086;-68
2022/03/07 09:35:15;;;;;;;3.72;2.17;;;-0.30;99.90;;;;;;4937252;29;20027;-68
2022/03/07 09:37:41;;;;;;;3.58;2.28;;;-0.40;99.90;;;;;;4937044;29;20187;-68
2022/03/07 09:40:08;;;;;;;3.47;2.40;;;-0.50;99.90;;;;;;4937413;29;20102;-70
2022/03/07 09:42:33;;;;;;;3.22;2.15;;;2.10;99.90;;;;;;4929908;29;20035;-70
2022/03/07 09:44:59;;;;;;;3.33;1.75;;;1.40;99.90;;;;;;4929395;29;20028;-69
2022/03/07 09:47:25;;;;;;;2.60;1.83;;;0.50;99.90;;;;;;4936293;29;20032;-69
2022/03/07 09:49:52;;;;;;;4.57;1.85;;;-0.10;99.90;;;;;;4922110;29;20435;-69
2022/03/07 09:52:18;;;;;;;2.55;1.95;;;-0.40;99.90;;;;;;4917977;29;20106;-69
2022/03/07 09:54:43;;;;;;;2.65;2.00;;;-0.40;99.90;;;;;;4918174;29;20157;-69
2022/03/07 09:57:09;;;;;;;4.55;2.50;;;-0.30;99.90;;;;;;4917924;29;20035;-69
2022/03/07 09:59:35;;;;;;;4.03;2.38;;;-0.20;99.90;;;;;;4917738;29;20484;-69
2022/03/07 10:02:04;;;;;;;4.45;2.03;;;-0.20;99.90;;;;;;4917944;29;20032;-70
2022/03/07 10:04:38;;;;;;;3.33;1.95;;;-0.10;99.90;;;;;;4917728;29;20035;-69
2022/03/07 10:07:05;;;;;;;2.63;1.80;;;-0.10;99.90;;;;;;4907125;29;20028;-69
2022/03/07 10:09:31;;;;;;;2.25;1.70;;;-0.20;99.90;;;;;;4939765;29;20028;-72
2022/03/07 10:12:00;;;;;;;2.05;1.80;;;-0.20;99.90;;;;;;4936432;29;20142;-67
2022/03/07 10:14:29;;;;;;;3.22;2.03;;;-0.20;99.90;;;;;;4936698;29;20381;-67
2022/03/07 10:16:55;;;;;;;4.72;1.90;;;-0.20;99.90;;;;;;4936528;29;20103;-68
2022/03/07 10:19:21;;;;;;;3.42;1.75;;;-0.10;99.90;;;;;;4936462;29;20424;-68
2022/03/07 10:21:50;;;;;;;3.08;1.77;;;-0.20;99.90;;;;;;4936300;29;20046;-68
2022/03/07 10:24:16;;;;;;;2.63;1.80;;;-0.10;99.90;;;;;;4936179;29;20023;-68
2022/03/07 10:26:42;;;;;;;1.73;1.30;;;-0.10;99.90;;;;;;4935866;29;20039;-69
2022/03/07 10:29:08;;;;;;;2.13;1.48;;;-0.10;99.90;;;;;;4936322;29;20023;-69
2022/03/07 10:31:34;;;;;;;2.22;1.60;;;-0.10;99.90;;;;;;4936406;29;20031;-69
2022/03/07 10:34:10;;;;;;;2.80;1.50;;;-0.10;99.90;;;;;;4936007;29;20440;-69
2022/03/07 10:36:42;;;;;;;2.03;1.63;;;-0.10;99.90;;;;;;4936231;29;20440;-71
2022/03/07 10:39:10;;;;;;;2.17;1.55;;;-0.10;99.90;;;;;;4935251;29;20131;-70
2022/03/07 10:41:38;;;;;;;2.92;1.75;;;-0.10;99.90;;;;;;4936163;29;20032;-71
2022/03/07 10:44:06;;;;;;;4.03;1.58;;;0.00;99.90;;;;;;4936133;29;20490;-72
2022/03/07 10:46:32;;;;;;;2.08;1.60;;;0.00;99.90;;;;;;4936352;29;20115;-72
2022/03/07 10:48:59;;;;;;;1.80;1.50;;;0.00;99.90;;;;;;4936114;29;20067;-71
2022/03/07 10:51:25;;;;;;;1.35;1.25;;;0.00;99.90;;;;;;4935754;29;20091;-71
2022/03/07 10:53:53;;;;;;;3.90;1.60;;;0.00;99.90;;;;;;4935802;29;20090;-72
2022/03/07 10:56:21;;;;;;;2.42;1.58;;;0.00;99.90;;;;;;4935637;29;20028;-72
2022/03/07 10:58:54;;;;;;;2.30;1.65;;;0.00;99.90;;;;;;4935291;29;20566;-72
2022/03/07 11:01:31;;;;;;;2.97;1.60;;;0.20;99.90;;;;;;4936787;29;20550;-71
2022/03/07 11:03:57;;;;;;;3.97;2.15;;;0.20;99.90;;;;;;4935008;29;20618;-73
2022/03/07 11:06:25;;;;;;;2.33;1.80;;;0.20;99.90;;;;;;4935102;29;20059;-77
2022/03/07 11:08:51;;;;;;;2.45;1.90;;;0.20;99.90;;;;;;4935014;29;20051;-72
2022/03/07 11:11:17;;;;;;;2.17;1.75;;;0.20;99.90;;;;;;4934214;29;20040;-72
2022/03/07 11:13:43;;;;;;;1.90;1.60;;;0.20;99.90;;;;;;4934597;29;20228;-72
2022/03/07 11:16:10;;;;;;;6.15;3.15;;;0.20;99.90;;;;;;4934674;29;20036;-71
2022/03/07 11:18:36;;;;;;;4.15;2.40;;;0.10;99.90;;;;;;4934992;29;20395;-71
2022/03/07 11:21:05;;;;;;;3.58;2.30;;;0.20;99.90;;;;;;4934201;29;20102;-72
2022/03/07 11:23:31;;;;;;;4.00;2.40;;;0.20;99.90;;;;;;4940445;29;20024;-72
2022/03/07 11:25:59;;;;;;;2.50;2.15;;;0.20;99.90;;;;;;4935139;29;20036;-71
2022/03/07 11:28:27;;;;;;;3.85;2.13;;;0.20;99.90;;;;;;4934999;29;20498;-72
2022/03/07 11:30:53;;;;;;;3.25;1.95;;;0.20;99.90;;;;;;4935237;29;20476;-67
2022/03/07 11:33:33;;;;;;;3.45;1.95;;;0.20;99.90;;;;;;4935363;29;20472;-70
2022/03/07 11:36:01;;;;;;;3.13;1.85;;;0.20;99.90;;;;;;4934824;29;20035;-72
2022/03/07 11:38:31;;;;;;;4.75;2.40;;;0.10;99.90;;;;;;4933081;29;20120;-66
2022/03/07 11:41:03;;;;;;;4.72;2.30;;;0.50;99.90;;;;;;4934828;29;20035;-72
2022/03/07 11:43:31;;;;;;;2.92;2.10;;;0.60;99.90;;;;;;4935278;29;20038;-72
2022/03/07 11:45:58;;;;;;;5.03;2.30;;;0.50;99.90;;;;;;4935170;29;20069;-72
2022/03/07 11:48:24;;;;;;;3.78;1.95;;;0.40;99.90;;;;;;4935147;29;20090;-72
2022/03/07 11:50:50;;;;;;;2.92;1.77;;;0.30;99.90;;;;;;4934628;29;20047;-72
2022/03/07 11:53:18;;;;;;;4.43;2.35;;;0.20;99.90;;;;;;4935358;29;20020;-72
2022/03/07 11:55:51;;;;;;;3.13;1.88;;;0.20;99.90;;;;;;4935190;29;20447;-72
2022/03/07 11:58:36;;;;;;;2.13;1.58;;;0.20;99.90;;;;;;4934683;29;20066;-72
2022/03/07 12:01:12;;;;;;;2.88;2.20;;;0.20;99.90;;;;;;4934882;29;20519;-73
2022/03/07 12:03:38;;;;;;;2.33;1.80;;;0.30;99.90;;;;;;4934807;29;20487;-72
2022/03/07 12:06:13;;;;;;;3.25;2.05;;;0.30;99.90;;;;;;4934768;29;20036;-69
2022/03/07 12:09:00;;;;;;;3.72;1.95;;;0.30;99.90;;;;;;4934533;29;20483;-74
2022/03/07 12:11:29;;;;;;;2.17;1.98;;;0.20;99.90;;;;;;4934794;29;20044;-69
2022/03/07 12:14:02;;;;;;;4.47;2.10;;;0.20;99.90;;;;;;4934624;29;20074;-70
2022/03/07 12:16:49;;;;;;;2.97;2.05;;;0.20;99.90;;;;;;4933126;29;20114;-70
2022/03/07 12:19:20;;;;;;;4.55;2.22;;;0.20;99.90;;;;;;4933532;29;20024;-70
2022/03/07 12:21:47;;;;;;;2.42;2.03;;;0.20;99.90;;;;;;4934550;29;20032;-70
2022/03/07 12:24:22;;;;;;;3.25;2.08;;;0.20;99.90;;;;;;4933801;29;20087;-70
2022/03/07 12:26:53;;;;;;;2.97;1.98;;;0.20;99.90;;;;;;4933947;29;20474;-70
2022/03/07 12:29:29;;;;;;;3.80;1.98;;;0.20;99.90;;;;;;4934643;29;20479;-70
2022/03/07 12:32:03;;;;;;;3.53;2.00;;;0.20;99.90;;;;;;4934278;29;20118;-70
2022/03/07 12:34:32;;;;;;;2.88;2.30;;;0.20;99.90;;;;;;4932880;29;20031;-70
2022/03/07 12:37:28;;;;;;;2.83;2.33;;;0.20;99.90;;;;;;4939389;29;20039;-70
2022/03/07 12:39:57;;;;;;;4.95;2.42;;;0.30;99.90;;;;;;4932364;29;20070;-70
2022/03/07 12:42:28;;;;;;;4.43;2.05;;;0.20;99.90;;;;;;4932814;29;20034;-70
2022/03/07 12:44:59;;;;;;;3.08;2.13;;;0.20;99.90;;;;;;4934080;29;20484;-71
2022/03/07 12:47:30;;;;;;;3.45;2.10;;;0.20;99.90;;;;;;4934129;29;20508;-67
2022/03/07 12:49:56;;;;;;;5.68;2.15;;;0.20;99.90;;;;;;4937403;29;20028;-66
2022/03/07 12:52:28;;;;;;;1.85;1.60;;;0.20;99.90;;;;;;4937740;29;20027;-66
2022/03/07 12:54:55;;;;;;;6.72;2.00;;;0.20;99.90;;;;;;4937683;29;20440;-64
2022/03/07 12:57:21;;;;;;;5.45;2.20;;;0.20;99.90;;;;;;4937536;29;20040;-67
2022/03/07 12:59:57;;;;;;;3.08;2.22;;;0.20;99.90;;;;;;4937555;29;20035;-67
2022/03/07 13:02:22;;;;;;;3.17;1.80;;;0.20;99.90;;;;;;4937636;29;20045;-67
2022/03/07 13:04:53;;;;;;;5.18;1.90;;;0.20;99.90;;;;;;4937319;29;20546;-67
2022/03/07 13:07:19;;;;;;;5.65;2.35;;;0.20;99.90;;;;;;4937437;29;20078;-67
2022/03/07 13:09:45;;;;;;;2.47;1.88;;;0.20;99.90;;;;;;4937282;29;20031;-67
2022/03/07 13:12:11;;;;;;;5.18;2.03;;;0.20;99.90;;;;;;4936824;29;20067;-67
2022/03/07 13:14:38;;;;;;;4.57;1.67;;;0.20;99.90;;;;;;4936820;29;20020;-67
2022/03/07 13:17:10;;;;;;;2.40;1.60;;;0.20;99.90;;;;;;4937290;29;20063;-67
2022/03/07 13:19:36;;;;;;;5.65;2.20;;;0.20;99.90;;;;;;4937273;29;20028;-67
2022/03/07 13:22:05;;;;;;;2.60;1.83;;;0.10;99.90;;;;;;4937390;29;20392;-67
2022/03/07 13:24:31;;;;;;;3.13;1.80;;;0.10;99.90;;;;;;4937856;29;20086;-66
2022/03/07 13:27:01;;;;;;;2.75;1.40;;;0.10;99.90;;;;;;4937231;29;20027;-67
2022/03/07 13:29:28;;;;;;;1.98;1.55;;;0.10;99.90;;;;;;4936231;29;20122;-67
2022/03/07 13:32:15;;;;;;;3.83;1.90;;;0.10;99.90;;;;;;4937204;29;20044;-67
2022/03/07 13:34:49;;;;;;;2.58;1.80;;;0.10;99.90;;;;;;4937021;29;20056;-67
2022/03/07 13:37:21;;;;;;;2.42;1.35;;;0.20;99.90;;;;;;4937063;29;20032;-66
2022/03/07 13:40:03;;;;;;;4.18;1.27;;;0.20;99.90;;;;;;4937346;29;20047;-65
2022/03/07 13:42:38;;;;;;;9.20;2.97;;;0.20;99.90;;;;;;4937112;29;20024;-68
2022/03/07 13:45:08;;;;;;;2.55;1.58;;;0.50;99.90;;;;;;4937047;29;20046;-74
2022/03/07 13:47:35;;;;;;;2.00;1.23;;;0.50;99.90;;;;;;4936931;29;20080;-70
2022/03/07 13:50:09;;;;;;;5.55;2.13;;;0.40;99.90;;;;;;4936794;29;20307;-74